sensor_id;sensor_type;location;lat;lon;timestamp;temperature;humidity
33994;DHT22;20673;48.980;8.138;2022-08-01T00:01:14;20.30;99.90
33994;DHT22;20673;48.980;8.138;2022-08-01T00:03:40;20.20;99.90
33994;DHT22;20673;48.980;8.138;2022-08-01T00:06:06;20.20;99.90
33994;DHT22;20673;48.980;8.138;2022-08-01T00:08:33;20.20;99.90
33994;DHT22;20673;48.980;8.138;2022-08-01T00:10:59;20.10;99.90
33994;DHT22;20673;48.980;8.138;2022-08-01T00:13:25;20.00;99.90
33994;DHT22;20673;48.980;8.138;2022-08-01T00:15:51;20.00;99.90
33994;DHT22;20673;48.980;8.138;2022-08-01T00:18:17;19.90;99.90
33994;DHT22;20673;48.980;8.138;2022-08-01T00:20:44;19.90;99.90
33994;DHT22;20673;48.980;8.138;2022-08-01T00:23:10;19.80;99.90
33994;DHT22;20673;48.980;8.138;2022-08-01T00:25:36;19.70;99.90
33994;DHT22;20673;48.980;8.138;2022-08-01T00:28:02;19.70;99.90
33994;DHT22;20673;48.980;8.138;2022-08-01T00:30:28;19.60;99.90
33994;DHT22;20673;48.980;8.138;2022-08-01T00:32:54;19.50;99.90
33994;DHT22;20673;48.980;8.138;2022-08-01T00:35:21;19.50;99.90
33994;DHT22;20673;48.980;8.138;2022-08-01T00:37:47;19.40;99.90
33994;DHT22;20673;48.980;8.138;2022-08-01T00:40:13;19.30;99.90
33994;DHT22;20673;48.980;8.138;2022-08-01T00:42:39;19.30;99.90
33994;DHT22;20673;48.980;8.138;2022-08-01T00:45:07;19.30;99.90
33994;DHT22;20673;48.980;8.138;2022-08-01T00:47:34;19.20;99.90
33994;DHT22;20673;48.980;8.138;2022-08-01T00:50:00;19.20;99.90
33994;DHT22;20673;48.980;8.138;2022-08-01T00:52:33;19.10;99.90
33994;DHT22;20673;48.980;8.138;2022-08-01T00:55:00;19.10;99.90
33994;DHT22;20673;48.980;8.138;2022-08-01T00:57:27;19.00;99.90
33994;DHT22;20673;48.980;8.138;2022-08-01T00:59:54;18.90;99.90
33994;DHT22;20673;48.980;8.138;2022-08-01T01:02:20;18.80;99.90
33994;DHT22;20673;48.980;8.138;2022-08-01T01:04:46;18.70;99.90
33994;DHT22;20673;48.980;8.138;2022-08-01T01:07:21;18.70;99.90
33994;DHT22;20673;48.980;8.138;2022-08-01T01:09:54;18.90;99.90
33994;DHT22;20673;48.980;8.138;2022-08-01T01:12:38;18.90;99.90
33994;DHT22;20673;48.980;8.138;2022-08-01T01:15:33;18.80;99.90
33994;DHT22;20673;48.980;8.138;2022-08-01T01:18:20;18.80;99.90
33994;DHT22;20673;48.980;8.138;2022-08-01T01:27:05;18.80;99.90
33994;DHT22;20673;48.980;8.138;2022-08-01T01:29:41;18.80;99.90
33994;DHT22;20673;48.980;8.138;2022-08-01T01:32:16;18.70;99.90
33994;DHT22;20673;48.980;8.138;2022-08-01T01:34:48;18.70;99.90
33994;DHT22;20673;48.980;8.138;2022-08-01T01:37:18;18.50;99.90
33994;DHT22;20673;48.980;8.138;2022-08-01T01:39:48;18.40;99.90
33994;DHT22;20673;48.980;8.138;2022-08-01T01:42:17;18.30;99.90
33994;DHT22;20673;48.980;8.138;2022-08-01T01:44:49;18.40;99.90
33994;DHT22;20673;48.980;8.138;2022-08-01T01:47:17;18.30;99.90
33994;DHT22;20673;48.980;8.138;2022-08-01T01:49:46;18.40;99.90
33994;DHT22;20673;48.980;8.138;2022-08-01T01:52:15;18.30;99.90
33994;DHT22;20673;48.980;8.138;2022-08-01T01:54:45;18.30;99.90
33994;DHT22;20673;48.980;8.138;2022-08-01T01:57:15;18.30;99.90
33994;DHT22;20673;48.980;8.138;2022-08-01T01:59:44;18.20;99.90
33994;DHT22;20673;48.980;8.138;2022-08-01T02:02:12;18.20;99.90
33994;DHT22;20673;48.980;8.138;2022-08-01T02:04:42;18.10;99.90
33994;DHT22;20673;48.980;8.138;2022-08-01T02:07:13;18.00;99.90
33994;DHT22;20673;48.980;8.138;2022-08-01T02:09:42;17.90;99.90
33994;DHT22;20673;48.980;8.138;2022-08-01T02:12:12;17.80;99.90
33994;DHT22;20673;48.980;8.138;2022-08-01T02:14:42;17.70;99.90
33994;DHT22;20673;48.980;8.138;2022-08-01T02:17:12;17.70;99.90
33994;DHT22;20673;48.980;8.138;2022-08-01T02:19:42;17.70;99.90
33994;DHT22;20673;48.980;8.138;2022-08-01T02:27:44;17.60;99.90
33994;DHT22;20673;48.980;8.138;2022-08-01T02:30:24;17.60;99.90
33994;DHT22;20673;48.980;8.138;2022-08-01T02:33:00;17.60;99.90
33994;DHT22;20673;48.980;8.138;2022-08-01T02:35:35;17.60;99.90
33994;DHT22;20673;48.980;8.138;2022-08-01T02:38:06;17.60;99.90
33994;DHT22;20673;48.980;8.138;2022-08-01T02:40:37;17.60;99.90
33994;DHT22;20673;48.980;8.138;2022-08-01T02:43:08;17.70;99.90
33994;DHT22;20673;48.980;8.138;2022-08-01T02:45:39;17.70;99.90
33994;DHT22;20673;48.980;8.138;2022-08-01T02:48:12;17.60;99.90
33994;DHT22;20673;48.980;8.138;2022-08-01T02:50:43;17.70;99.90
33994;DHT22;20673;48.980;8.138;2022-08-01T02:53:13;17.60;99.90
33994;DHT22;20673;48.980;8.138;2022-08-01T02:55:42;17.60;99.90
33994;DHT22;20673;48.980;8.138;2022-08-01T02:58:12;17.60;99.90
33994;DHT22;20673;48.980;8.138;2022-08-01T03:00:42;17.50;99.90
33994;DHT22;20673;48.980;8.138;2022-08-01T03:03:10;17.50;99.90
33994;DHT22;20673;48.980;8.138;2022-08-01T03:05:38;17.50;99.90
33994;DHT22;20673;48.980;8.138;2022-08-01T03:08:06;17.40;99.90
33994;DHT22;20673;48.980;8.138;2022-08-01T03:10:36;17.40;99.90
33994;DHT22;20673;48.980;8.138;2022-08-01T03:13:07;17.40;99.90
33994;DHT22;20673;48.980;8.138;2022-08-01T03:15:38;17.40;99.90
33994;DHT22;20673;48.980;8.138;2022-08-01T03:18:07;17.50;99.90
33994;DHT22;20673;48.980;8.138;2022-08-01T03:20:37;17.50;99.90
33994;DHT22;20673;48.980;8.138;2022-08-01T03:23:06;17.50;99.90
33994;DHT22;20673;48.980;8.138;2022-08-01T03:25:36;17.50;99.90
33994;DHT22;20673;48.980;8.138;2022-08-01T03:28:06;17.50;99.90
33994;DHT22;20673;48.980;8.138;2022-08-01T03:30:35;17.50;99.90
33994;DHT22;20673;48.980;8.138;2022-08-01T03:33:03;17.50;99.90
33994;DHT22;20673;48.980;8.138;2022-08-01T03:35:37;17.50;99.90
33994;DHT22;20673;48.980;8.138;2022-08-01T03:38:06;17.60;99.90
33994;DHT22;20673;48.980;8.138;2022-08-01T03:40:41;17.60;99.90
33994;DHT22;20673;48.980;8.138;2022-08-01T03:43:16;17.50;99.90
33994;DHT22;20673;48.980;8.138;2022-08-01T03:46:00;17.40;99.90
33994;DHT22;20673;48.980;8.138;2022-08-01T03:48:31;17.40;99.90
33994;DHT22;20673;48.980;8.138;2022-08-01T03:51:02;17.50;99.90
33994;DHT22;20673;48.980;8.138;2022-08-01T03:53:32;17.50;99.90
33994;DHT22;20673;48.980;8.138;2022-08-01T03:56:01;17.50;99.90
33994;DHT22;20673;48.980;8.138;2022-08-01T03:58:30;17.50;99.90
33994;DHT22;20673;48.980;8.138;2022-08-01T04:00:57;17.50;99.90
33994;DHT22;20673;48.980;8.138;2022-08-01T04:03:25;17.50;99.90
33994;DHT22;20673;48.980;8.138;2022-08-01T04:05:52;17.40;99.90
33994;DHT22;20673;48.980;8.138;2022-08-01T04:08:18;17.50;99.90
33994;DHT22;20673;48.980;8.138;2022-08-01T04:10:44;17.60;99.90
33994;DHT22;20673;48.980;8.138;2022-08-01T04:13:10;17.60;99.90
33994;DHT22;20673;48.980;8.138;2022-08-01T04:15:37;17.60;99.90
33994;DHT22;20673;48.980;8.138;2022-08-01T04:18:03;17.60;99.90
33994;DHT22;20673;48.980;8.138;2022-08-01T04:20:29;17.70;99.90
33994;DHT22;20673;48.980;8.138;2022-08-01T04:22:55;17.70;99.90
33994;DHT22;20673;48.980;8.138;2022-08-01T04:25:29;17.70;99.90
33994;DHT22;20673;48.980;8.138;2022-08-01T04:27:57;17.60;99.90
33994;DHT22;20673;48.980;8.138;2022-08-01T04:30:28;17.70;99.90
33994;DHT22;20673;48.980;8.138;2022-08-01T04:32:59;17.70;99.90
33994;DHT22;20673;48.980;8.138;2022-08-01T04:35:27;17.70;99.90
33994;DHT22;20673;48.980;8.138;2022-08-01T04:37:56;17.90;99.90
33994;DHT22;20673;48.980;8.138;2022-08-01T04:40:25;18.00;99.90
33994;DHT22;20673;48.980;8.138;2022-08-01T04:42:52;18.00;99.90
33994;DHT22;20673;48.980;8.138;2022-08-01T04:45:18;18.20;99.90
33994;DHT22;20673;48.980;8.138;2022-08-01T04:47:45;18.20;99.90
33994;DHT22;20673;48.980;8.138;2022-08-01T04:50:13;18.40;99.90
33994;DHT22;20673;48.980;8.138;2022-08-01T04:52:39;18.40;99.90
33994;DHT22;20673;48.980;8.138;2022-08-01T04:55:08;18.50;99.90
33994;DHT22;20673;48.980;8.138;2022-08-01T04:57:37;18.60;99.90
33994;DHT22;20673;48.980;8.138;2022-08-01T05:00:06;18.70;99.90
33994;DHT22;20673;48.980;8.138;2022-08-01T05:02:33;18.70;99.90
33994;DHT22;20673;48.980;8.138;2022-08-01T05:05:00;18.90;99.90
33994;DHT22;20673;48.980;8.138;2022-08-01T05:07:26;18.90;99.90
33994;DHT22;20673;48.980;8.138;2022-08-01T05:09:52;19.00;99.90
33994;DHT22;20673;48.980;8.138;2022-08-01T05:12:18;19.10;99.90
33994;DHT22;20673;48.980;8.138;2022-08-01T05:14:44;19.10;99.90
33994;DHT22;20673;48.980;8.138;2022-08-01T05:17:11;19.20;99.90
33994;DHT22;20673;48.980;8.138;2022-08-01T05:19:38;19.30;99.90
33994;DHT22;20673;48.980;8.138;2022-08-01T05:22:07;19.40;99.90
33994;DHT22;20673;48.980;8.138;2022-08-01T05:24:35;19.50;99.90
33994;DHT22;20673;48.980;8.138;2022-08-01T05:27:03;19.60;99.90
33994;DHT22;20673;48.980;8.138;2022-08-01T05:29:30;19.80;99.90
33994;DHT22;20673;48.980;8.138;2022-08-01T05:31:57;19.90;99.90
33994;DHT22;20673;48.980;8.138;2022-08-01T05:34:24;20.10;99.90
33994;DHT22;20673;48.980;8.138;2022-08-01T05:36:52;20.20;99.90
33994;DHT22;20673;48.980;8.138;2022-08-01T05:39:18;20.30;99.90
33994;DHT22;20673;48.980;8.138;2022-08-01T05:41:44;20.40;99.90
33994;DHT22;20673;48.980;8.138;2022-08-01T05:44:11;20.50;99.90
33994;DHT22;20673;48.980;8.138;2022-08-01T05:46:37;20.60;99.90
33994;DHT22;20673;48.980;8.138;2022-08-01T05:49:04;20.70;99.90
33994;DHT22;20673;48.980;8.138;2022-08-01T05:51:31;20.80;99.90
33994;DHT22;20673;48.980;8.138;2022-08-01T05:53:58;20.90;99.90
33994;DHT22;20673;48.980;8.138;2022-08-01T05:56:24;21.00;99.90
33994;DHT22;20673;48.980;8.138;2022-08-01T05:58:51;21.10;99.90
33994;DHT22;20673;48.980;8.138;2022-08-01T06:01:17;21.20;99.90
33994;DHT22;20673;48.980;8.138;2022-08-01T06:03:44;21.40;99.90
33994;DHT22;20673;48.980;8.138;2022-08-01T06:06:11;21.60;99.90
33994;DHT22;20673;48.980;8.138;2022-08-01T06:08:39;21.70;99.90
33994;DHT22;20673;48.980;8.138;2022-08-01T06:11:06;21.80;99.90
33994;DHT22;20673;48.980;8.138;2022-08-01T06:13:32;22.00;99.90
33994;DHT22;20673;48.980;8.138;2022-08-01T06:15:59;22.00;99.90
33994;DHT22;20673;48.980;8.138;2022-08-01T06:18:25;22.10;99.90
33994;DHT22;20673;48.980;8.138;2022-08-01T06:20:51;22.20;99.90
33994;DHT22;20673;48.980;8.138;2022-08-01T06:23:17;22.30;99.90
33994;DHT22;20673;48.980;8.138;2022-08-01T06:25:43;22.40;99.90
33994;DHT22;20673;48.980;8.138;2022-08-01T06:28:10;22.60;99.90
33994;DHT22;20673;48.980;8.138;2022-08-01T06:30:36;22.70;99.90
33994;DHT22;20673;48.980;8.138;2022-08-01T06:33:02;22.80;99.90
33994;DHT22;20673;48.980;8.138;2022-08-01T06:35:28;22.80;99.90
33994;DHT22;20673;48.980;8.138;2022-08-01T06:38:01;22.70;99.90
33994;DHT22;20673;48.980;8.138;2022-08-01T06:40:24;22.70;99.90
33994;DHT22;20673;48.980;8.138;2022-08-01T06:42:51;22.80;99.90
33994;DHT22;20673;48.980;8.138;2022-08-01T06:45:17;22.90;99.90
33994;DHT22;20673;48.980;8.138;2022-08-01T06:47:45;23.00;99.90
33994;DHT22;20673;48.980;8.138;2022-08-01T06:50:11;23.20;99.90
33994;DHT22;20673;48.980;8.138;2022-08-01T06:52:40;23.20;99.90
33994;DHT22;20673;48.980;8.138;2022-08-01T06:55:07;23.20;99.90
33994;DHT22;20673;48.980;8.138;2022-08-01T06:57:34;23.30;99.90
33994;DHT22;20673;48.980;8.138;2022-08-01T07:00:06;23.40;99.90
33994;DHT22;20673;48.980;8.138;2022-08-01T07:02:32;23.70;99.90
33994;DHT22;20673;48.980;8.138;2022-08-01T07:04:58;24.00;99.90
33994;DHT22;20673;48.980;8.138;2022-08-01T07:07:26;24.30;99.90
33994;DHT22;20673;48.980;8.138;2022-08-01T07:09:52;24.40;99.90
33994;DHT22;20673;48.980;8.138;2022-08-01T07:12:19;24.40;99.90
33994;DHT22;20673;48.980;8.138;2022-08-01T07:14:45;24.30;99.90
33994;DHT22;20673;48.980;8.138;2022-08-01T07:17:11;24.20;99.90
33994;DHT22;20673;48.980;8.138;2022-08-01T07:19:37;24.10;99.90
33994;DHT22;20673;48.980;8.138;2022-08-01T07:22:03;24.00;99.90
33994;DHT22;20673;48.980;8.138;2022-08-01T07:24:29;24.10;99.90
33994;DHT22;20673;48.980;8.138;2022-08-01T07:26:56;24.00;99.90
33994;DHT22;20673;48.980;8.138;2022-08-01T07:29:24;24.00;99.90
33994;DHT22;20673;48.980;8.138;2022-08-01T07:31:55;24.00;99.90
33994;DHT22;20673;48.980;8.138;2022-08-01T07:34:23;24.10;99.90
33994;DHT22;20673;48.980;8.138;2022-08-01T07:36:51;24.20;99.90
33994;DHT22;20673;48.980;8.138;2022-08-01T07:39:18;24.30;99.90
33994;DHT22;20673;48.980;8.138;2022-08-01T07:41:44;24.40;99.90
33994;DHT22;20673;48.980;8.138;2022-08-01T07:44:10;24.60;99.90
33994;DHT22;20673;48.980;8.138;2022-08-01T07:46:37;24.60;99.90
33994;DHT22;20673;48.980;8.138;2022-08-01T07:49:03;24.80;99.90
33994;DHT22;20673;48.980;8.138;2022-08-01T07:51:29;24.90;99.90
33994;DHT22;20673;48.980;8.138;2022-08-01T07:53:55;24.90;99.90
33994;DHT22;20673;48.980;8.138;2022-08-01T07:56:21;25.00;99.90
33994;DHT22;20673;48.980;8.138;2022-08-01T07:58:50;25.10;99.90
33994;DHT22;20673;48.980;8.138;2022-08-01T08:01:16;25.20;99.90
33994;DHT22;20673;48.980;8.138;2022-08-01T08:03:43;25.40;99.90
33994;DHT22;20673;48.980;8.138;2022-08-01T08:06:09;25.40;99.90
33994;DHT22;20673;48.980;8.138;2022-08-01T08:08:35;25.40;99.90
33994;DHT22;20673;48.980;8.138;2022-08-01T08:11:01;25.40;99.90
33994;DHT22;20673;48.980;8.138;2022-08-01T08:13:28;25.40;99.90
33994;DHT22;20673;48.980;8.138;2022-08-01T08:15:54;25.50;99.90
33994;DHT22;20673;48.980;8.138;2022-08-01T08:18:21;25.50;99.90
33994;DHT22;20673;48.980;8.138;2022-08-01T08:20:47;25.70;99.90
33994;DHT22;20673;48.980;8.138;2022-08-01T08:23:13;25.90;99.90
33994;DHT22;20673;48.980;8.138;2022-08-01T08:25:57;26.10;99.90
33994;DHT22;20673;48.980;8.138;2022-08-01T08:28:24;26.20;99.90
33994;DHT22;20673;48.980;8.138;2022-08-01T08:30:50;26.40;99.90
33994;DHT22;20673;48.980;8.138;2022-08-01T08:33:16;26.60;99.90
33994;DHT22;20673;48.980;8.138;2022-08-01T08:35:42;26.80;99.90
33994;DHT22;20673;48.980;8.138;2022-08-01T08:38:09;26.70;99.90
33994;DHT22;20673;48.980;8.138;2022-08-01T08:40:36;26.60;99.90
33994;DHT22;20673;48.980;8.138;2022-08-01T08:43:04;26.70;99.90
33994;DHT22;20673;48.980;8.138;2022-08-01T08:45:32;26.60;99.90
33994;DHT22;20673;48.980;8.138;2022-08-01T08:47:59;26.60;99.90
33994;DHT22;20673;48.980;8.138;2022-08-01T08:50:26;26.60;99.90
33994;DHT22;20673;48.980;8.138;2022-08-01T08:52:54;26.50;99.90
33994;DHT22;20673;48.980;8.138;2022-08-01T08:55:22;26.40;99.90
33994;DHT22;20673;48.980;8.138;2022-08-01T08:57:50;26.50;99.90
33994;DHT22;20673;48.980;8.138;2022-08-01T09:00:18;26.70;99.90
33994;DHT22;20673;48.980;8.138;2022-08-01T09:02:46;26.90;99.90
33994;DHT22;20673;48.980;8.138;2022-08-01T09:05:14;27.00;99.90
33994;DHT22;20673;48.980;8.138;2022-08-01T09:07:42;26.70;99.90
33994;DHT22;20673;48.980;8.138;2022-08-01T09:10:08;26.70;99.90
33994;DHT22;20673;48.980;8.138;2022-08-01T09:12:37;27.00;99.90
33994;DHT22;20673;48.980;8.138;2022-08-01T09:15:04;27.20;99.90
33994;DHT22;20673;48.980;8.138;2022-08-01T09:17:41;27.60;99.90
33994;DHT22;20673;48.980;8.138;2022-08-01T09:20:08;27.50;99.90
33994;DHT22;20673;48.980;8.138;2022-08-01T09:22:38;27.20;99.90
33994;DHT22;20673;48.980;8.138;2022-08-01T09:25:08;26.80;99.90
33994;DHT22;20673;48.980;8.138;2022-08-01T09:27:37;27.10;99.90
33994;DHT22;20673;48.980;8.138;2022-08-01T09:30:11;27.20;99.90
33994;DHT22;20673;48.980;8.138;2022-08-01T09:32:36;27.60;99.90
33994;DHT22;20673;48.980;8.138;2022-08-01T09:35:26;27.70;99.90
33994;DHT22;20673;48.980;8.138;2022-08-01T09:38:12;27.90;99.90
33994;DHT22;20673;48.980;8.138;2022-08-01T09:40:57;28.20;99.90
33994;DHT22;20673;48.980;8.138;2022-08-01T09:43:26;28.40;99.90
33994;DHT22;20673;48.980;8.138;2022-08-01T09:45:55;28.50;99.90
33994;DHT22;20673;48.980;8.138;2022-08-01T09:48:22;28.10;99.90
33994;DHT22;20673;48.980;8.138;2022-08-01T09:50:52;28.00;99.90
33994;DHT22;20673;48.980;8.138;2022-08-01T09:53:19;27.70;99.90
33994;DHT22;20673;48.980;8.138;2022-08-01T09:55:46;27.50;99.90
33994;DHT22;20673;48.980;8.138;2022-08-01T09:58:12;27.30;99.90
33994;DHT22;20673;48.980;8.138;2022-08-01T10:00:39;27.30;99.90
33994;DHT22;20673;48.980;8.138;2022-08-01T10:03:20;27.30;99.90
33994;DHT22;20673;48.980;8.138;2022-08-01T10:05:48;27.30;99.90
33994;DHT22;20673;48.980;8.138;2022-08-01T10:08:14;27.20;99.90
33994;DHT22;20673;48.980;8.138;2022-08-01T10:10:41;27.20;99.90
33994;DHT22;20673;48.980;8.138;2022-08-01T10:13:09;27.30;99.90
33994;DHT22;20673;48.980;8.138;2022-08-01T10:15:37;27.30;99.90
33994;DHT22;20673;48.980;8.138;2022-08-01T10:18:06;27.90;99.90
33994;DHT22;20673;48.980;8.138;2022-08-01T10:20:34;28.20;99.90
33994;DHT22;20673;48.980;8.138;2022-08-01T10:23:03;28.50;99.90
33994;DHT22;20673;48.980;8.138;2022-08-01T10:25:35;28.50;99.90
33994;DHT22;20673;48.980;8.138;2022-08-01T10:28:08;28.70;99.90
33994;DHT22;20673;48.980;8.138;2022-08-01T10:30:42;28.60;99.90
33994;DHT22;20673;48.980;8.138;2022-08-01T10:33:10;28.40;99.90
33994;DHT22;20673;48.980;8.138;2022-08-01T10:35:38;28.20;99.90
33994;DHT22;20673;48.980;8.138;2022-08-01T10:38:06;28.10;99.90
33994;DHT22;20673;48.980;8.138;2022-08-01T10:40:33;27.80;99.90
33994;DHT22;20673;48.980;8.138;2022-08-01T10:43:01;28.00;99.90
33994;DHT22;20673;48.980;8.138;2022-08-01T10:45:28;28.70;99.90
33994;DHT22;20673;48.980;8.138;2022-08-01T10:48:09;28.90;99.90
33994;DHT22;20673;48.980;8.138;2022-08-01T10:50:44;29.10;99.90
33994;DHT22;20673;48.980;8.138;2022-08-01T10:53:18;29.60;99.90
33994;DHT22;20673;48.980;8.138;2022-08-01T10:55:51;30.00;99.90
33994;DHT22;20673;48.980;8.138;2022-08-01T10:58:20;29.60;99.90
33994;DHT22;20673;48.980;8.138;2022-08-01T11:12:08;28.70;99.90
33994;DHT22;20673;48.980;8.138;2022-08-01T11:30:47;30.40;99.90
33994;DHT22;20673;48.980;8.138;2022-08-01T11:33:17;30.50;99.90
33994;DHT22;20673;48.980;8.138;2022-08-01T11:41:29;30.60;99.90
33994;DHT22;20673;48.980;8.138;2022-08-01T11:46:55;30.50;99.90
33994;DHT22;20673;48.980;8.138;2022-08-01T11:49:45;30.40;99.90
33994;DHT22;20673;48.980;8.138;2022-08-01T11:52:27;30.00;99.90
33994;DHT22;20673;48.980;8.138;2022-08-01T11:55:04;29.60;99.90
33994;DHT22;20673;48.980;8.138;2022-08-01T11:57:33;30.20;99.90
33994;DHT22;20673;48.980;8.138;2022-08-01T12:00:15;30.70;99.90
33994;DHT22;20673;48.980;8.138;2022-08-01T12:02:53;31.10;99.90
33994;DHT22;20673;48.980;8.138;2022-08-01T12:05:17;31.40;99.90
33994;DHT22;20673;48.980;8.138;2022-08-01T12:07:51;31.60;99.90
33994;DHT22;20673;48.980;8.138;2022-08-01T12:10:20;31.40;99.90
33994;DHT22;20673;48.980;8.138;2022-08-01T12:15:21;32.10;99.90
33994;DHT22;20673;48.980;8.138;2022-08-01T12:17:55;32.20;99.90
33994;DHT22;20673;48.980;8.138;2022-08-01T12:20:22;31.90;99.90
33994;DHT22;20673;48.980;8.138;2022-08-01T12:22:54;31.60;99.90
33994;DHT22;20673;48.980;8.138;2022-08-01T12:25:21;31.60;99.90
33994;DHT22;20673;48.980;8.138;2022-08-01T12:27:47;31.10;99.90
33994;DHT22;20673;48.980;8.138;2022-08-01T12:30:17;31.20;99.90
33994;DHT22;20673;48.980;8.138;2022-08-01T12:32:47;31.20;99.90
33994;DHT22;20673;48.980;8.138;2022-08-01T12:35:16;31.50;99.90
33994;DHT22;20673;48.980;8.138;2022-08-01T12:37:47;31.40;99.90
33994;DHT22;20673;48.980;8.138;2022-08-01T12:40:20;31.50;99.90
33994;DHT22;20673;48.980;8.138;2022-08-01T12:42:53;31.90;99.90
33994;DHT22;20673;48.980;8.138;2022-08-01T12:45:25;31.60;99.90
33994;DHT22;20673;48.980;8.138;2022-08-01T12:47:54;31.30;99.90
33994;DHT22;20673;48.980;8.138;2022-08-01T12:50:22;31.40;99.90
33994;DHT22;20673;48.980;8.138;2022-08-01T12:52:51;31.80;99.90
33994;DHT22;20673;48.980;8.138;2022-08-01T12:55:22;31.80;99.90
33994;DHT22;20673;48.980;8.138;2022-08-01T12:58:09;31.60;99.90
33994;DHT22;20673;48.980;8.138;2022-08-01T13:00:38;31.40;99.90
33994;DHT22;20673;48.980;8.138;2022-08-01T13:03:08;31.20;99.90
33994;DHT22;20673;48.980;8.138;2022-08-01T13:08:24;31.90;99.90
33994;DHT22;20673;48.980;8.138;2022-08-01T13:11:06;31.80;99.90
33994;DHT22;20673;48.980;8.138;2022-08-01T13:13:40;31.90;99.90
33994;DHT22;20673;48.980;8.138;2022-08-01T13:16:12;31.60;99.90
33994;DHT22;20673;48.980;8.138;2022-08-01T13:18:39;32.10;99.90
33994;DHT22;20673;48.980;8.138;2022-08-01T13:21:16;32.00;99.90
33994;DHT22;20673;48.980;8.138;2022-08-01T13:24:10;31.70;99.90
33994;DHT22;20673;48.980;8.138;2022-08-01T13:29:38;30.80;99.90
33994;DHT22;20673;48.980;8.138;2022-08-01T13:32:20;30.80;99.90
33994;DHT22;20673;48.980;8.138;2022-08-01T13:34:47;30.90;99.90
33994;DHT22;20673;48.980;8.138;2022-08-01T13:37:13;31.00;99.90
33994;DHT22;20673;48.980;8.138;2022-08-01T13:39:44;31.00;99.90
33994;DHT22;20673;48.980;8.138;2022-08-01T13:42:12;31.00;99.90
33994;DHT22;20673;48.980;8.138;2022-08-01T13:44:40;30.60;99.90
33994;DHT22;20673;48.980;8.138;2022-08-01T13:47:08;30.80;99.90
33994;DHT22;20673;48.980;8.138;2022-08-01T13:49:34;30.80;99.90
33994;DHT22;20673;48.980;8.138;2022-08-01T13:52:02;31.50;99.90
33994;DHT22;20673;48.980;8.138;2022-08-01T13:54:28;31.70;99.90
33994;DHT22;20673;48.980;8.138;2022-08-01T13:56:55;31.60;99.90
33994;DHT22;20673;48.980;8.138;2022-08-01T13:59:21;31.90;99.90
33994;DHT22;20673;48.980;8.138;2022-08-01T14:01:47;31.90;99.90
33994;DHT22;20673;48.980;8.138;2022-08-01T14:04:13;31.90;99.90
33994;DHT22;20673;48.980;8.138;2022-08-01T14:06:40;32.30;99.90
33994;DHT22;20673;48.980;8.138;2022-08-01T14:09:06;32.30;99.90
33994;DHT22;20673;48.980;8.138;2022-08-01T14:11:32;32.40;99.90
33994;DHT22;20673;48.980;8.138;2022-08-01T14:13:59;32.10;99.90
33994;DHT22;20673;48.980;8.138;2022-08-01T14:16:25;31.90;99.90
33994;DHT22;20673;48.980;8.138;2022-08-01T14:18:51;32.20;99.90
33994;DHT22;20673;48.980;8.138;2022-08-01T14:21:18;31.90;99.90
33994;DHT22;20673;48.980;8.138;2022-08-01T14:23:44;31.80;99.90
33994;DHT22;20673;48.980;8.138;2022-08-01T14:26:11;31.60;99.90
33994;DHT22;20673;48.980;8.138;2022-08-01T14:28:37;31.30;99.90
33994;DHT22;20673;48.980;8.138;2022-08-01T14:31:04;31.10;99.90
33994;DHT22;20673;48.980;8.138;2022-08-01T14:33:31;31.00;99.90
33994;DHT22;20673;48.980;8.138;2022-08-01T14:35:58;30.80;99.90
33994;DHT22;20673;48.980;8.138;2022-08-01T14:38:24;31.00;99.90
33994;DHT22;20673;48.980;8.138;2022-08-01T14:40:50;31.00;99.90
33994;DHT22;20673;48.980;8.138;2022-08-01T14:43:17;30.60;99.90
33994;DHT22;20673;48.980;8.138;2022-08-01T14:45:44;30.40;99.90
33994;DHT22;20673;48.980;8.138;2022-08-01T14:48:10;30.10;99.90
33994;DHT22;20673;48.980;8.138;2022-08-01T14:50:36;29.80;99.90
33994;DHT22;20673;48.980;8.138;2022-08-01T14:53:03;29.50;99.90
33994;DHT22;20673;48.980;8.138;2022-08-01T14:55:29;29.40;99.90
33994;DHT22;20673;48.980;8.138;2022-08-01T14:57:55;29.40;99.90
33994;DHT22;20673;48.980;8.138;2022-08-01T15:00:21;29.30;99.90
33994;DHT22;20673;48.980;8.138;2022-08-01T15:02:47;29.40;99.90
33994;DHT22;20673;48.980;8.138;2022-08-01T15:05:13;29.40;99.90
33994;DHT22;20673;48.980;8.138;2022-08-01T15:07:40;29.50;99.90
33994;DHT22;20673;48.980;8.138;2022-08-01T15:10:06;29.40;99.90
33994;DHT22;20673;48.980;8.138;2022-08-01T15:12:33;29.30;99.90
33994;DHT22;20673;48.980;8.138;2022-08-01T15:15:00;29.30;99.90
33994;DHT22;20673;48.980;8.138;2022-08-01T15:17:28;29.30;99.90
33994;DHT22;20673;48.980;8.138;2022-08-01T15:20:00;29.30;99.90
33994;DHT22;20673;48.980;8.138;2022-08-01T15:22:28;29.30;99.90
33994;DHT22;20673;48.980;8.138;2022-08-01T15:24:56;29.30;99.90
33994;DHT22;20673;48.980;8.138;2022-08-01T15:27:24;29.40;99.90
33994;DHT22;20673;48.980;8.138;2022-08-01T15:29:50;29.70;99.90
33994;DHT22;20673;48.980;8.138;2022-08-01T15:32:17;29.80;99.90
33994;DHT22;20673;48.980;8.138;2022-08-01T15:34:44;29.60;99.90
33994;DHT22;20673;48.980;8.138;2022-08-01T15:37:11;29.40;99.90
33994;DHT22;20673;48.980;8.138;2022-08-01T15:39:38;29.50;99.90
33994;DHT22;20673;48.980;8.138;2022-08-01T15:42:15;29.50;99.90
33994;DHT22;20673;48.980;8.138;2022-08-01T15:44:39;29.30;99.90
33994;DHT22;20673;48.980;8.138;2022-08-01T15:47:05;29.10;99.90
33994;DHT22;20673;48.980;8.138;2022-08-01T15:49:35;28.90;99.90
33994;DHT22;20673;48.980;8.138;2022-08-01T15:52:04;28.70;99.90
33994;DHT22;20673;48.980;8.138;2022-08-01T15:54:31;28.60;99.90
33994;DHT22;20673;48.980;8.138;2022-08-01T15:56:58;28.60;99.90
33994;DHT22;20673;48.980;8.138;2022-08-01T15:59:25;28.50;99.90
33994;DHT22;20673;48.980;8.138;2022-08-01T16:01:51;28.60;99.90
33994;DHT22;20673;48.980;8.138;2022-08-01T16:04:18;29.00;99.90
33994;DHT22;20673;48.980;8.138;2022-08-01T16:06:46;29.30;99.90
33994;DHT22;20673;48.980;8.138;2022-08-01T16:09:12;29.40;99.90
33994;DHT22;20673;48.980;8.138;2022-08-01T16:11:38;29.50;99.90
33994;DHT22;20673;48.980;8.138;2022-08-01T16:14:05;29.60;99.90
33994;DHT22;20673;48.980;8.138;2022-08-01T16:16:31;29.70;99.90
33994;DHT22;20673;48.980;8.138;2022-08-01T16:18:57;29.70;99.90
33994;DHT22;20673;48.980;8.138;2022-08-01T16:21:23;29.80;99.90
33994;DHT22;20673;48.980;8.138;2022-08-01T16:23:50;29.80;99.90
33994;DHT22;20673;48.980;8.138;2022-08-01T16:26:18;29.80;99.90
33994;DHT22;20673;48.980;8.138;2022-08-01T16:28:44;29.80;99.90
33994;DHT22;20673;48.980;8.138;2022-08-01T16:31:15;29.70;99.90
33994;DHT22;20673;48.980;8.138;2022-08-01T16:33:41;29.40;99.90
33994;DHT22;20673;48.980;8.138;2022-08-01T16:36:08;29.10;99.90